createdAt,value
2023-04-14T00:00:28.601Z,6.32
2023-04-14T00:05:55.934Z,6.15
2023-04-14T00:11:01.632Z,6.01
2023-04-14T00:19:59.732Z,5.92
2023-04-14T00:25:06.556Z,5.77
2023-04-14T00:30:14.258Z,5.62
2023-04-14T00:35:19.924Z,5.53
2023-04-14T00:40:25.793Z,5.47
2023-04-14T00:45:31.423Z,5.58
2023-04-14T00:50:37.011Z,5.65
2023-04-14T00:55:43.342Z,5.68
2023-04-14T01:00:53.965Z,5.66
2023-04-14T01:05:59.452Z,5.53
2023-04-14T01:11:14.214Z,5.40
2023-04-14T01:16:28.809Z,5.35
2023-04-14T01:21:46.516Z,5.30
2023-04-14T01:27:03.283Z,5.18
2023-04-14T01:32:12.912Z,5.03
2023-04-14T01:37:25.019Z,4.88
2023-04-14T01:42:33.989Z,4.80
2023-04-14T01:47:41.103Z,4.80
2023-04-14T01:52:52.900Z,4.90
2023-04-14T01:57:59.333Z,4.91
2023-04-14T02:03:06.669Z,4.83
2023-04-14T02:08:14.242Z,4.79
2023-04-14T02:13:21.556Z,4.86
2023-04-14T02:18:28.824Z,4.77
2023-04-14T02:23:34.401Z,4.69
2023-04-14T02:28:46.728Z,4.66
2023-04-14T02:33:55.946Z,4.66
2023-04-14T02:39:06.647Z,4.60
2023-04-14T02:44:18.656Z,4.56
2023-04-14T02:49:25.523Z,4.47
2023-04-14T02:54:34.439Z,4.44
2023-04-14T02:59:42.721Z,4.34
2023-04-14T03:04:50.082Z,4.35
2023-04-14T03:10:03.042Z,4.53
2023-04-14T03:15:10.083Z,4.83
2023-04-14T03:20:20.224Z,5.13
2023-04-14T03:25:28.490Z,5.42
2023-04-14T03:30:36.770Z,5.61
2023-04-14T03:35:44.830Z,5.75
2023-04-14T03:40:51.401Z,5.89
2023-04-14T03:45:59.647Z,6.05
2023-04-14T03:51:09.085Z,6.20
2023-04-14T03:56:16.118Z,6.32
2023-04-14T04:01:25.962Z,6.41
2023-04-14T04:06:32.938Z,6.54
2023-04-14T04:11:39.860Z,6.66
2023-04-14T04:16:49.926Z,6.76
2023-04-14T04:21:59.940Z,6.87
2023-04-14T04:27:11.958Z,6.98
2023-04-14T04:32:23.840Z,7.07
2023-04-14T04:37:30.053Z,7.22
2023-04-14T04:42:40.293Z,7.33
2023-04-14T04:47:47.177Z,7.47
2023-04-14T04:52:52.848Z,7.62
2023-04-14T04:57:58.615Z,7.81
2023-04-14T05:03:04.340Z,7.94
2023-04-14T05:08:09.829Z,8.09
2023-04-14T05:13:16.082Z,8.23
2023-04-14T05:18:21.604Z,8.32
2023-04-14T05:23:27.232Z,8.43
2023-04-14T05:28:32.891Z,8.53
2023-04-14T05:33:40.176Z,8.66
2023-04-14T05:38:46.497Z,8.89
2023-04-14T05:43:52.021Z,8.96
2023-04-14T05:48:58.140Z,9.22
2023-04-14T05:54:03.882Z,9.49
2023-04-14T05:59:09.473Z,9.67
2023-04-14T06:04:16.106Z,9.77
2023-04-14T06:09:22.337Z,9.91
2023-04-14T06:14:27.794Z,9.99
2023-04-14T06:19:33.465Z,9.95
2023-04-14T06:24:39.019Z,9.96
2023-04-14T06:29:44.616Z,10.02
2023-04-14T06:34:52.614Z,10.26
2023-04-14T06:39:59.954Z,10.33
2023-04-14T06:45:06.504Z,10.47
2023-04-14T06:50:12.617Z,10.60
2023-04-14T06:55:18.357Z,10.95
2023-04-14T07:00:24.743Z,11.70
2023-04-14T07:05:30.502Z,14.02
2023-04-14T07:10:35.950Z,14.81
2023-04-14T07:15:47.905Z,15.56
2023-04-14T07:20:54.262Z,15.77
2023-04-14T07:26:01.021Z,15.72
2023-04-14T07:31:10.779Z,15.89
2023-04-14T07:36:16.431Z,16.14
2023-04-14T07:41:22.244Z,16.60
2023-04-14T07:46:27.955Z,18.80
2023-04-14T07:51:33.654Z,20.62
2023-04-14T07:56:39.068Z,22.75
2023-04-14T08:01:45.029Z,22.46
2023-04-14T08:06:50.686Z,20.74
2023-04-14T08:11:57.357Z,20.10
2023-04-14T08:17:02.832Z,20.07
2023-04-14T08:22:08.438Z,22.27
2023-04-14T08:27:13.953Z,24.20
2023-04-14T08:32:19.709Z,25.35
2023-04-14T08:37:25.706Z,25.99
2023-04-14T08:42:31.259Z,26.43
2023-04-14T08:47:39.284Z,25.52
2023-04-14T08:52:48.930Z,24.67
2023-04-14T08:57:54.724Z,22.15
2023-04-14T09:03:00.814Z,21.34
2023-04-14T09:08:06.942Z,21.66
2023-04-14T09:13:15.484Z,22.44
2023-04-14T09:18:21.362Z,21.30
2023-04-14T09:23:26.985Z,20.85
2023-04-14T09:28:32.926Z,22.45
2023-04-14T09:33:44.251Z,23.69
2023-04-14T09:38:51.697Z,22.91
2023-04-14T09:44:07.147Z,21.79
2023-04-14T09:49:12.739Z,21.30
2023-04-14T09:54:25.748Z,20.01
2023-04-14T09:59:36.839Z,20.55
2023-04-14T10:04:42.510Z,21.97
2023-04-14T10:09:49.597Z,22.94
2023-04-14T10:14:55.137Z,23.56
2023-04-14T10:20:00.614Z,22.41
2023-04-14T10:25:09.133Z,21.37
2023-04-14T10:30:15.216Z,21.66
2023-04-14T10:35:21.863Z,22.74
2023-04-14T10:41:10.718Z,22.10
2023-04-14T10:46:18.034Z,20.73
2023-04-14T10:51:36.334Z,19.36
2023-04-14T10:56:42.260Z,18.57
2023-04-14T11:01:57.118Z,18.34
2023-04-14T11:07:10.041Z,18.79
2023-04-14T11:12:27.357Z,18.43
2023-04-14T11:17:37.398Z,18.45
2023-04-14T11:22:45.907Z,19.08
2023-04-14T11:27:52.148Z,19.18
2023-04-14T11:32:59.422Z,19.48
2023-04-14T11:38:09.381Z,19.38
2023-04-14T11:43:15.137Z,19.31
2023-04-14T11:48:21.773Z,19.75
2023-04-14T11:53:27.377Z,19.53
2023-04-14T11:58:34.060Z,19.66
2023-04-14T12:03:39.829Z,20.07
2023-04-14T12:08:51.160Z,19.89
2023-04-14T12:13:57.169Z,19.35
2023-04-14T12:19:03.612Z,19.11
2023-04-14T12:24:09.630Z,19.13
2023-04-14T12:29:15.231Z,19.05
2023-04-14T12:34:26.755Z,19.37
2023-04-14T12:39:32.249Z,19.54
2023-04-14T12:44:38.945Z,19.22
2023-04-14T12:49:45.086Z,18.57
2023-04-14T12:55:08.064Z,18.39
2023-04-14T13:00:17.775Z,18.84
2023-04-14T13:05:24.975Z,18.14
2023-04-14T13:10:30.379Z,17.95
2023-04-14T13:16:14.123Z,18.25
2023-04-14T13:21:04.072Z,18.27
2023-04-14T13:26:09.601Z,18.24
2023-04-14T13:31:18.331Z,18.22
2023-04-14T13:36:24.339Z,18.25
2023-04-14T13:41:30.475Z,17.94
2023-04-14T13:46:40.807Z,17.78
2023-04-14T13:51:47.683Z,18.27
2023-04-14T13:56:53.532Z,18.19
2023-04-14T14:01:59.158Z,17.87
2023-04-14T14:07:07.115Z,17.93
2023-04-14T14:12:13.604Z,18.03
2023-04-14T14:17:19.191Z,18.07
2023-04-14T14:22:24.597Z,17.78
2023-04-14T14:27:30.646Z,17.37
2023-04-14T14:32:36.577Z,17.34
2023-04-14T14:37:45.149Z,17.45
2023-04-14T14:42:53.513Z,17.42
2023-04-14T14:47:59.526Z,17.16
2023-04-14T14:53:05.313Z,16.88
2023-04-14T14:58:12.069Z,16.72
2023-04-14T15:03:17.927Z,16.81
2023-04-14T15:08:24.062Z,16.75
2023-04-14T15:13:30.106Z,16.52
2023-04-14T15:18:35.521Z,16.05
2023-04-14T15:23:43.754Z,15.66
2023-04-14T15:28:49.401Z,15.46
2023-04-14T15:33:55.066Z,15.37
2023-04-14T15:39:00.690Z,15.39
2023-04-14T15:44:06.383Z,15.29
2023-04-14T15:49:11.829Z,15.21
2023-04-14T15:54:17.304Z,15.00
2023-04-14T15:59:25.067Z,14.71
2023-04-14T16:04:30.998Z,14.58
2023-04-14T16:09:36.833Z,14.49
2023-04-14T16:14:43.284Z,14.35
2023-04-14T16:19:48.815Z,14.15
2023-04-14T16:24:54.468Z,13.97
2023-04-14T16:30:00.176Z,13.85
2023-04-14T16:35:06.415Z,13.74
2023-04-14T16:40:13.208Z,13.59
2023-04-14T16:45:19.233Z,13.39
2023-04-14T16:50:25.354Z,13.24
2023-04-14T16:55:31.451Z,13.10
2023-04-14T17:00:37.317Z,12.93
2023-04-14T17:05:43.539Z,12.77
2023-04-14T17:10:49.164Z,12.62
2023-04-14T17:16:02.473Z,12.48
2023-04-14T17:21:14.175Z,12.32
2023-04-14T17:26:19.636Z,12.17
2023-04-14T17:31:25.327Z,12.03
2023-04-14T17:36:31.133Z,11.90
2023-04-14T17:41:37.226Z,11.79
2023-04-14T17:46:43.137Z,11.69
2023-04-14T17:51:48.711Z,11.60
2023-04-14T17:56:54.257Z,11.49
2023-04-14T18:01:59.810Z,11.41
2023-04-14T18:07:06.433Z,11.33
2023-04-14T18:12:12.218Z,11.25
2023-04-14T18:17:18.534Z,11.16
2023-04-14T18:22:24.166Z,11.08
2023-04-14T18:32:38.577Z,10.94
2023-04-14T18:37:46.459Z,10.87
2023-04-14T18:42:54.158Z,10.83
2023-04-14T18:47:59.883Z,10.78
2023-04-14T18:53:05.838Z,10.74
2023-04-14T18:58:14.399Z,10.74
2023-04-14T19:03:20.681Z,10.72
2023-04-14T19:08:27.340Z,10.70
2023-04-14T19:13:33.107Z,10.70
2023-04-14T19:18:41.855Z,10.70
2023-04-14T19:23:47.588Z,10.69
2023-04-14T19:28:53.863Z,10.71
2023-04-14T19:33:59.242Z,10.76
2023-04-14T19:39:05.122Z,10.78
2023-04-14T19:44:12.156Z,10.76
2023-04-14T19:49:17.994Z,10.72
2023-04-14T19:54:23.465Z,10.69
2023-04-14T19:59:29.618Z,10.65
2023-04-14T20:04:35.150Z,10.60
2023-04-14T20:09:44.961Z,10.54
2023-04-14T20:14:50.747Z,10.51
2023-04-14T20:19:56.095Z,10.50
2023-04-14T20:25:01.767Z,10.46
2023-04-14T20:30:11.136Z,10.42
2023-04-14T20:35:16.794Z,10.40
2023-04-14T20:40:22.374Z,10.38
2023-04-14T20:45:27.818Z,10.36
2023-04-14T20:50:34.051Z,10.36
2023-04-14T20:55:41.192Z,10.35
2023-04-14T21:00:47.213Z,10.33
2023-04-14T21:05:52.705Z,10.30
2023-04-14T21:11:15.835Z,10.27
2023-04-14T21:16:25.933Z,10.23
2023-04-14T21:21:31.773Z,10.16
2023-04-14T21:26:37.367Z,10.08
2023-04-14T21:31:44.135Z,10.03
2023-04-14T21:36:49.833Z,9.97
2023-04-14T21:41:57.058Z,9.91
2023-04-14T21:47:02.893Z,9.88
2023-04-14T21:52:10.227Z,9.86
2023-04-14T21:57:15.812Z,9.87
2023-04-14T22:02:21.817Z,9.89
2023-04-14T22:07:27.355Z,9.88
2023-04-14T22:12:34.654Z,9.89
2023-04-14T22:17:41.274Z,9.91
2023-04-14T22:22:46.956Z,9.92
2023-04-14T22:27:52.504Z,9.93
2023-04-14T22:32:58.041Z,9.95
2023-04-14T22:38:03.676Z,9.97
2023-04-14T22:43:09.339Z,9.97
2023-04-14T22:48:15.288Z,10.00
2023-04-14T22:53:20.976Z,10.02
2023-04-14T22:58:27.263Z,10.05
2023-04-14T23:03:33.196Z,10.09
2023-04-14T23:08:38.834Z,10.11
2023-04-14T23:13:44.640Z,10.11
2023-04-14T23:18:52.302Z,10.13
2023-04-14T23:23:57.692Z,10.14
2023-04-14T23:29:03.401Z,10.13
2023-04-14T23:34:11.184Z,10.13
2023-04-14T23:39:17.596Z,10.14
2023-04-14T23:44:23.113Z,10.14
2023-04-14T23:49:34.849Z,10.14
2023-04-14T23:54:42.352Z,10.16
2023-04-14T23:59:47.979Z,10.14
